Palava, Texas
Current Conditions -  °F | °C
As of 12:55 AM on Thursday 27 Nov 2014 (Local Time) from KSWW Reporting Station
Clear Clear  
Wind Chill: 45°   Ceiling: Unl
Heat Index: 45°   Visibility: 10mi
Dew Point: 33°   Wind: 3mph
Humidity: 62%   Direction: 70°ENE
Pressure: 30.44"   Gusts: NA
Location:  32.5104°N, 100.305°W
Report Text: KSWW 270655Z AUTO 07003KT 10SM CLR 07/01 A3044 RMK AO2 T00740006
Loading
Personal Weather Stations






























Interactive Weather Map New forecast layout! Learn more

10-Day Weather Forecast

Advertisements
Track Severe Weather on mobile